createdAt,value
2023-05-20T00:01:46.661Z,5.70
2023-05-20T00:04:16.600Z,7.60
2023-05-20T00:06:46.615Z,6.07
2023-05-20T00:09:17.220Z,3.60
2023-05-20T00:11:47.236Z,4.43
2023-05-20T00:14:17.174Z,5.40
2023-05-20T00:16:49.625Z,5.43
2023-05-20T00:19:19.540Z,11.23
2023-05-20T00:21:49.433Z,5.17
2023-05-20T00:24:19.265Z,4.77
2023-05-20T00:26:49.042Z,5.03
2023-05-20T00:29:19.095Z,9.50
2023-05-20T00:31:51.619Z,9.97
2023-05-20T00:34:22.104Z,4.23
2023-05-20T00:36:52.329Z,3.87
2023-05-20T00:39:22.448Z,6.53
2023-05-20T00:41:52.339Z,6.40
2023-05-20T00:44:24.185Z,5.23
2023-05-20T00:46:57.082Z,5.97
2023-05-20T00:49:27.293Z,10.00
2023-05-20T00:51:57.307Z,10.67
2023-05-20T00:54:27.212Z,7.47
2023-05-20T00:56:57.530Z,6.17
2023-05-20T00:59:27.865Z,3.97
2023-05-20T01:02:00.473Z,10.30
2023-05-20T01:04:30.854Z,5.80
2023-05-20T01:07:01.204Z,8.70
2023-05-20T01:09:32.333Z,5.80
2023-05-20T01:12:09.818Z,11.30
2023-05-20T01:14:46.733Z,4.30
2023-05-20T01:17:22.890Z,6.70
2023-05-20T01:19:54.072Z,4.73
2023-05-20T01:22:29.915Z,6.50
2023-05-20T01:24:59.818Z,10.50
2023-05-20T01:27:30.489Z,8.83
2023-05-20T01:30:00.409Z,8.30
2023-05-20T01:32:35.020Z,3.03
2023-05-20T01:35:06.287Z,6.30
2023-05-20T01:37:41.508Z,4.90
2023-05-20T01:40:13.053Z,3.40
2023-05-20T01:42:44.551Z,6.53
2023-05-20T01:45:15.158Z,7.80
2023-05-20T01:47:47.945Z,6.20
2023-05-20T01:50:17.763Z,7.70
2023-05-20T01:52:50.235Z,3.17
2023-05-20T01:55:20.263Z,5.33
2023-05-20T01:57:50.112Z,4.70
2023-05-20T02:00:20.123Z,8.57
2023-05-20T02:02:50.075Z,3.90
2023-05-20T02:05:20.250Z,4.70
2023-05-20T02:07:52.693Z,4.13
2023-05-20T02:10:23.964Z,4.80
2023-05-20T02:12:53.863Z,3.57
2023-05-20T02:15:23.772Z,2.07
2023-05-20T02:17:53.986Z,4.13
2023-05-20T02:20:23.834Z,4.47
2023-05-20T02:22:56.332Z,4.00
2023-05-20T02:25:26.165Z,5.67
2023-05-20T02:27:55.956Z,10.87
2023-05-20T02:30:25.838Z,4.87
2023-05-20T02:32:55.823Z,4.63
2023-05-20T02:35:26.438Z,3.60
2023-05-20T02:37:59.010Z,2.63
2023-05-20T02:40:28.849Z,3.03
2023-05-20T02:42:58.690Z,4.33
2023-05-20T02:45:28.625Z,5.80
2023-05-20T02:47:58.475Z,3.03
2023-05-20T02:50:28.799Z,6.37
2023-05-20T02:53:01.220Z,2.47
2023-05-20T02:55:31.170Z,3.50
2023-05-20T02:58:01.173Z,2.83
2023-05-20T03:00:31.696Z,3.27
2023-05-20T03:03:01.791Z,11.50
2023-05-20T03:05:32.952Z,4.87
2023-05-20T03:08:05.605Z,2.50
2023-05-20T03:10:35.458Z,5.00
2023-05-20T03:13:05.432Z,6.20
2023-05-20T03:15:35.528Z,5.73
2023-05-20T03:18:06.104Z,3.23
2023-05-20T03:20:37.020Z,10.80
2023-05-20T03:23:09.832Z,6.33
2023-05-20T03:25:40.379Z,2.40
2023-05-20T03:28:10.214Z,5.17
2023-05-20T03:30:41.130Z,4.10
2023-05-20T03:33:11.054Z,3.67
2023-05-20T03:35:40.976Z,1.93
2023-05-20T03:38:13.385Z,5.23
2023-05-20T03:40:43.224Z,3.47
2023-05-20T03:43:13.196Z,6.77
2023-05-20T03:45:42.991Z,4.60
2023-05-20T03:48:12.794Z,3.60
2023-05-20T03:50:46.300Z,3.13
2023-05-20T03:53:20.385Z,4.47
2023-05-20T03:55:50.212Z,6.07
2023-05-20T03:58:20.922Z,3.37
2023-05-20T04:00:51.786Z,3.13
2023-05-20T04:03:23.169Z,4.07
2023-05-20T04:05:53.258Z,3.53
2023-05-20T04:08:27.856Z,2.70
2023-05-20T04:10:59.370Z,2.80
2023-05-20T04:13:29.187Z,4.80
2023-05-20T04:15:58.944Z,4.80
2023-05-20T04:18:30.060Z,4.40
2023-05-20T04:21:01.836Z,8.30
2023-05-20T04:23:34.399Z,3.17
2023-05-20T04:26:04.176Z,2.33
2023-05-20T04:28:37.919Z,3.00
2023-05-20T04:31:08.322Z,5.33
2023-05-20T04:33:39.845Z,7.60
2023-05-20T04:36:16.685Z,5.10
2023-05-20T04:38:49.948Z,4.93
2023-05-20T04:41:19.784Z,3.00
2023-05-20T04:43:50.080Z,7.37
2023-05-20T04:46:20.764Z,3.67
2023-05-20T04:48:51.171Z,5.83
2023-05-20T04:51:21.040Z,4.20
2023-05-20T04:53:53.661Z,4.23
2023-05-20T04:56:23.886Z,6.93
2023-05-20T04:58:53.685Z,3.27
2023-05-20T05:01:23.625Z,5.23
2023-05-20T05:03:53.882Z,2.90
2023-05-20T05:06:24.421Z,7.83
2023-05-20T05:08:56.848Z,2.10
2023-05-20T05:11:26.935Z,3.03
2023-05-20T05:13:58.012Z,3.77
2023-05-20T05:16:29.621Z,7.47
2023-05-20T05:18:59.527Z,2.30
2023-05-20T05:21:31.706Z,4.57
2023-05-20T05:24:04.069Z,6.73
2023-05-20T05:26:34.093Z,10.93
2023-05-20T05:29:05.326Z,5.43
2023-05-20T05:31:35.678Z,4.87
2023-05-20T05:34:05.508Z,5.63
2023-05-20T05:36:36.844Z,4.10
2023-05-20T05:39:09.355Z,2.90
2023-05-20T05:41:41.694Z,2.90
2023-05-20T05:44:11.683Z,4.83
2023-05-20T05:46:41.592Z,5.23
2023-05-20T05:49:11.473Z,3.10
2023-05-20T05:51:41.288Z,4.33
2023-05-20T05:54:13.745Z,4.57
2023-05-20T05:56:43.611Z,7.63
2023-05-20T05:59:13.517Z,2.53
2023-05-20T06:01:43.797Z,3.53
2023-05-20T06:04:13.727Z,4.63
2023-05-20T06:06:43.866Z,5.07
2023-05-20T06:09:16.244Z,2.80
2023-05-20T06:11:46.146Z,3.57
2023-05-20T06:14:16.151Z,5.17
2023-05-20T06:16:46.073Z,3.57
2023-05-20T06:19:16.182Z,4.37
2023-05-20T06:21:46.055Z,3.90
2023-05-20T06:24:18.659Z,4.10
2023-05-20T06:26:50.604Z,2.47
2023-05-20T06:29:21.046Z,7.43
2023-05-20T06:31:51.064Z,3.40
2023-05-20T06:34:21.014Z,7.23
2023-05-20T06:36:50.861Z,6.07
2023-05-20T06:39:23.247Z,3.60
2023-05-20T06:41:53.067Z,5.27
2023-05-20T06:44:31.008Z,2.83
2023-05-20T06:47:03.686Z,5.70
2023-05-20T06:49:34.730Z,3.13
2023-05-20T06:52:04.576Z,4.50
2023-05-20T06:54:40.255Z,3.60
2023-05-20T06:57:11.047Z,5.63
2023-05-20T06:59:41.840Z,11.10
2023-05-20T07:02:12.028Z,5.17
2023-05-20T07:04:41.933Z,4.40
2023-05-20T07:07:11.904Z,7.27
2023-05-20T07:09:44.268Z,8.07
2023-05-20T07:12:14.134Z,4.83
2023-05-20T07:14:43.944Z,4.77
2023-05-20T07:17:14.389Z,10.13
2023-05-20T07:19:46.463Z,5.30
2023-05-20T07:22:16.667Z,5.37
2023-05-20T07:25:08.287Z,5.13
2023-05-20T07:27:39.642Z,10.93
2023-05-20T07:30:11.246Z,5.60
2023-05-20T07:32:43.071Z,6.37
2023-05-20T07:35:13.104Z,3.70
2023-05-20T07:37:42.877Z,4.73
2023-05-20T07:40:15.774Z,3.70
2023-05-20T07:42:45.600Z,4.27
2023-05-20T07:45:15.403Z,4.40
2023-05-20T07:47:45.362Z,6.10
2023-05-20T07:50:15.609Z,5.20
2023-05-20T07:52:55.849Z,11.70
2023-05-20T07:55:31.402Z,5.00
2023-05-20T07:58:01.498Z,8.07
2023-05-20T08:00:31.667Z,5.17
2023-05-20T08:03:05.806Z,4.53
2023-05-20T08:05:48.350Z,8.17
2023-05-20T08:08:18.480Z,5.83
2023-05-20T08:10:59.696Z,6.10
2023-05-20T08:13:30.700Z,7.13
2023-05-20T08:16:04.151Z,5.37
2023-05-20T08:18:34.351Z,8.53
2023-05-20T08:21:04.177Z,3.37
2023-05-20T08:23:36.789Z,7.60
2023-05-20T08:26:11.638Z,8.20
2023-05-20T08:28:44.564Z,6.60
2023-05-20T08:31:14.624Z,6.00
2023-05-20T08:33:44.474Z,7.30
2023-05-20T08:36:14.324Z,4.03
2023-05-20T08:38:44.115Z,4.30
2023-05-20T08:41:16.503Z,6.33
2023-05-20T08:43:49.223Z,7.80
2023-05-20T08:46:20.421Z,11.30
2023-05-20T08:48:51.003Z,4.77
2023-05-20T08:51:24.218Z,4.90
2023-05-20T08:53:54.471Z,5.30
2023-05-20T08:56:30.072Z,4.43
2023-05-20T08:59:00.950Z,3.07
2023-05-20T09:01:30.945Z,3.77
2023-05-20T09:04:00.727Z,7.43
2023-05-20T09:06:30.488Z,5.00
2023-05-20T09:09:00.280Z,6.60
2023-05-20T09:11:33.628Z,5.13
2023-05-20T09:14:03.398Z,5.20
2023-05-20T09:16:33.260Z,5.43
2023-05-20T09:19:03.170Z,4.47
2023-05-20T09:21:33.435Z,7.30
2023-05-20T09:24:05.002Z,3.80
2023-05-20T09:26:37.334Z,5.20
2023-05-20T09:29:08.454Z,6.13
2023-05-20T09:31:39.752Z,2.87
2023-05-20T09:34:09.889Z,3.17
2023-05-20T09:36:42.424Z,4.57
2023-05-20T09:39:16.741Z,8.03
2023-05-20T09:41:55.855Z,6.77
2023-05-20T09:44:25.915Z,4.83
2023-05-20T09:46:56.648Z,2.90
2023-05-20T09:49:28.090Z,4.27
2023-05-20T09:51:59.429Z,4.97
2023-05-20T09:54:30.817Z,3.37
2023-05-20T09:57:03.324Z,8.30
2023-05-20T09:59:34.475Z,5.63
2023-05-20T10:02:04.418Z,9.43
2023-05-20T10:04:36.164Z,4.80
2023-05-20T10:07:40.696Z,5.47
2023-05-20T10:10:22.727Z,10.10
2023-05-20T10:13:04.613Z,17.40
2023-05-20T10:15:44.602Z,12.73
2023-05-20T10:18:24.669Z,4.10
2023-05-20T10:20:54.533Z,6.60
2023-05-20T10:23:26.273Z,5.90
2023-05-20T10:25:57.091Z,6.80
2023-05-20T10:28:37.221Z,4.23
2023-05-20T10:31:20.034Z,11.43
2023-05-20T10:33:50.933Z,4.47
2023-05-20T10:36:29.287Z,6.40
2023-05-20T10:39:00.885Z,6.05
2023-05-20T10:41:32.097Z,6.30
2023-05-20T10:44:09.429Z,4.23
2023-05-20T10:47:00.028Z,4.67
2023-05-20T10:49:37.044Z,7.33
2023-05-20T10:52:07.508Z,4.97
2023-05-20T10:54:39.345Z,8.00
2023-05-20T10:57:10.880Z,5.10
2023-05-20T10:59:43.830Z,4.60
2023-05-20T11:02:14.769Z,7.17
2023-05-20T11:04:46.844Z,4.43
2023-05-20T11:07:17.051Z,3.00
2023-05-20T11:09:52.735Z,8.77
2023-05-20T11:12:24.725Z,11.83
2023-05-20T11:14:57.545Z,4.10
2023-05-20T11:17:27.316Z,6.93
2023-05-20T11:19:57.117Z,4.57
2023-05-20T11:22:26.882Z,4.80
2023-05-20T11:24:56.701Z,7.60
2023-05-20T11:27:26.469Z,4.10
2023-05-20T11:29:58.898Z,4.80
2023-05-20T11:32:29.088Z,3.70
2023-05-20T11:34:59.370Z,9.47
2023-05-20T11:37:29.443Z,6.67
2023-05-20T11:40:10.529Z,13.37
2023-05-20T11:42:40.291Z,5.30
2023-05-20T11:45:16.532Z,5.60
2023-05-20T11:47:46.342Z,3.60
2023-05-20T11:50:20.827Z,7.13
2023-05-20T11:53:00.260Z,13.47
2023-05-20T11:55:30.179Z,5.73
2023-05-20T11:58:02.321Z,6.73
2023-05-20T12:00:49.381Z,8.20
2023-05-20T12:03:22.136Z,8.57
2023-05-20T12:05:52.412Z,6.50
2023-05-20T12:08:23.453Z,4.07
2023-05-20T12:10:53.437Z,8.17
2023-05-20T12:13:24.009Z,4.70
2023-05-20T12:15:56.470Z,4.20
2023-05-20T12:18:26.288Z,4.00
2023-05-20T12:20:56.095Z,8.27
2023-05-20T12:23:26.638Z,7.50
2023-05-20T12:25:56.570Z,7.83
2023-05-20T12:28:26.350Z,4.20
2023-05-20T12:30:58.701Z,4.30
2023-05-20T12:33:28.468Z,5.10
2023-05-20T12:35:58.318Z,6.10
2023-05-20T12:38:28.237Z,4.90
2023-05-20T12:40:58.060Z,5.00
2023-05-20T12:43:27.813Z,6.87
2023-05-20T12:46:00.318Z,3.00
2023-05-20T12:48:30.127Z,14.60
2023-05-20T12:51:00.015Z,9.30
2023-05-20T12:53:29.772Z,7.37
2023-05-20T12:55:59.582Z,5.40
2023-05-20T12:58:29.493Z,4.93
2023-05-20T13:01:01.873Z,4.70
2023-05-20T13:03:31.809Z,3.67
2023-05-20T13:06:02.113Z,5.37
2023-05-20T13:08:31.883Z,2.90
2023-05-20T13:11:01.643Z,6.83
2023-05-20T13:13:31.453Z,17.47
2023-05-20T13:16:03.812Z,7.30
2023-05-20T13:18:33.584Z,8.73
2023-05-20T13:21:03.353Z,5.63
2023-05-20T13:23:33.424Z,5.50
2023-05-20T13:26:03.248Z,4.60
2023-05-20T13:28:32.996Z,5.70
2023-05-20T13:31:05.999Z,4.37
2023-05-20T13:33:35.897Z,5.00
2023-05-20T13:36:05.933Z,5.83
2023-05-20T13:38:37.223Z,4.90
2023-05-20T13:41:07.886Z,7.07
2023-05-20T13:43:37.677Z,3.50
2023-05-20T13:46:10.226Z,7.50
2023-05-20T13:48:40.024Z,6.00
2023-05-20T13:51:09.800Z,4.23
2023-05-20T13:53:39.598Z,5.43
2023-05-20T13:56:09.537Z,4.90
2023-05-20T13:58:39.611Z,13.43
2023-05-20T14:01:12.745Z,3.93
2023-05-20T14:03:43.230Z,3.93
2023-05-20T14:06:15.180Z,15.60
2023-05-20T14:08:45.444Z,5.67
2023-05-20T14:11:15.433Z,13.83
2023-05-20T14:13:45.244Z,6.20
2023-05-20T14:16:17.758Z,8.17
2023-05-20T14:18:47.664Z,5.60
2023-05-20T14:21:17.503Z,8.33
2023-05-20T14:23:47.346Z,4.67
2023-05-20T14:26:17.178Z,6.30
2023-05-20T14:28:47.196Z,6.37
2023-05-20T14:31:19.768Z,5.47
2023-05-20T14:33:50.000Z,4.97
2023-05-20T14:36:20.753Z,10.13
2023-05-20T14:38:51.442Z,5.17
2023-05-20T14:41:22.721Z,6.17
2023-05-20T14:43:53.450Z,5.63
2023-05-20T14:46:26.879Z,4.70
2023-05-20T14:48:57.616Z,6.07
2023-05-20T14:51:28.192Z,4.47
2023-05-20T14:54:00.314Z,9.33
2023-05-20T14:56:31.404Z,11.13
2023-05-20T14:59:04.338Z,6.67
2023-05-20T15:01:38.936Z,6.87
2023-05-20T15:04:09.780Z,5.83
2023-05-20T15:06:41.953Z,6.03
2023-05-20T15:09:12.699Z,7.07
2023-05-20T15:11:42.859Z,6.17
2023-05-20T15:14:13.668Z,6.70
2023-05-20T15:16:47.447Z,8.77
2023-05-20T15:19:17.721Z,9.90
2023-05-20T15:21:49.825Z,16.60
2023-05-20T15:24:20.011Z,7.97
2023-05-20T15:26:50.476Z,10.90
2023-05-20T15:29:21.281Z,11.03
2023-05-20T15:31:54.242Z,5.40
2023-05-20T15:34:24.639Z,5.20
2023-05-20T15:36:55.327Z,10.40
2023-05-20T15:39:26.525Z,8.30
2023-05-20T15:41:56.947Z,8.17
2023-05-20T15:44:29.034Z,7.40
2023-05-20T15:47:02.690Z,14.33
2023-05-20T15:49:33.283Z,16.60
2023-05-20T15:52:04.436Z,12.97
2023-05-20T15:54:35.087Z,9.20
2023-05-20T15:57:05.737Z,16.33
2023-05-20T15:59:36.363Z,7.57
2023-05-20T16:02:09.764Z,11.03
2023-05-20T16:04:40.397Z,7.60
2023-05-20T16:07:10.959Z,20.60
2023-05-20T16:09:41.368Z,8.40
2023-05-20T16:12:14.899Z,8.60
2023-05-20T16:14:45.567Z,7.43
2023-05-20T16:17:21.483Z,9.97
2023-05-20T16:19:52.428Z,6.83
2023-05-20T16:22:23.010Z,8.30
2023-05-20T16:24:55.615Z,14.80
2023-05-20T16:27:26.320Z,5.40
2023-05-20T16:29:56.948Z,6.50
2023-05-20T16:32:30.185Z,13.40
2023-05-20T16:35:02.015Z,4.30
2023-05-20T16:37:32.641Z,7.27
2023-05-20T16:40:03.613Z,7.87
2023-05-20T16:42:34.286Z,9.73
2023-05-20T16:45:04.720Z,5.73
2023-05-20T16:47:37.852Z,6.20
2023-05-20T16:50:09.585Z,6.30
2023-05-20T16:52:42.201Z,7.23
2023-05-20T16:55:15.868Z,8.33
2023-05-20T16:57:47.736Z,5.97
2023-05-20T17:00:18.880Z,8.70
2023-05-20T17:02:51.635Z,5.60
2023-05-20T17:05:21.637Z,8.70
2023-05-20T17:07:51.781Z,7.10
2023-05-20T17:10:21.719Z,6.13
2023-05-20T17:12:51.779Z,8.20
2023-05-20T17:15:23.647Z,5.77
2023-05-20T17:17:56.271Z,7.10
2023-05-20T17:20:26.146Z,11.40
2023-05-20T17:22:55.942Z,14.80
2023-05-20T17:25:28.529Z,7.37
2023-05-20T17:27:58.293Z,6.17
2023-05-20T17:30:28.153Z,15.30
2023-05-20T17:33:00.855Z,11.43
2023-05-20T17:35:31.847Z,9.20
2023-05-20T17:38:01.643Z,9.40
2023-05-20T17:40:31.632Z,8.67
2023-05-20T17:43:01.483Z,6.67
2023-05-20T17:45:31.412Z,9.33
2023-05-20T17:48:08.203Z,8.93
2023-05-20T17:50:40.615Z,6.40
2023-05-20T17:53:10.513Z,6.63
2023-05-20T17:55:40.305Z,7.47
2023-05-20T17:58:10.355Z,6.03
2023-05-20T18:00:42.306Z,8.10
2023-05-20T18:03:14.859Z,7.00
2023-05-20T18:05:44.671Z,5.30
2023-05-20T18:08:14.620Z,12.80
2023-05-20T18:10:44.466Z,8.80
2023-05-20T18:13:14.271Z,5.63
2023-05-20T18:15:44.106Z,6.00
2023-05-20T18:18:16.498Z,5.63
2023-05-20T18:20:46.310Z,5.73
2023-05-20T18:23:16.187Z,5.70
2023-05-20T18:25:46.743Z,9.83
2023-05-20T18:28:16.746Z,9.93
2023-05-20T18:30:46.518Z,9.00
2023-05-20T18:33:18.974Z,7.40
2023-05-20T18:35:48.802Z,5.70
2023-05-20T18:38:18.620Z,7.70
2023-05-20T18:40:48.739Z,5.47
2023-05-20T18:43:18.550Z,7.80
2023-05-20T18:45:48.505Z,8.10
2023-05-20T18:48:26.651Z,4.57
2023-05-20T18:50:58.733Z,5.53
2023-05-20T18:53:28.601Z,10.63
2023-05-20T18:56:03.162Z,8.43
2023-05-20T18:58:32.973Z,8.67
2023-05-20T19:01:02.903Z,6.13
2023-05-20T19:03:35.346Z,7.17
2023-05-20T19:06:05.267Z,7.53
2023-05-20T19:08:35.509Z,7.20
2023-05-20T19:11:05.342Z,9.97
2023-05-20T19:13:35.140Z,51.60
2023-05-20T19:16:05.330Z,118.77
2023-05-20T19:18:37.730Z,119.27
2023-05-20T19:21:07.640Z,79.47
2023-05-20T19:23:37.461Z,68.83
2023-05-20T19:26:07.566Z,71.07
2023-05-20T19:28:37.447Z,62.77
2023-05-20T19:31:07.388Z,48.13
2023-05-20T19:33:40.559Z,45.50
2023-05-20T19:36:10.384Z,41.60
2023-05-20T19:38:41.768Z,33.50
2023-05-20T19:41:12.155Z,25.97
2023-05-20T19:43:42.093Z,22.53
2023-05-20T19:46:11.899Z,38.33
2023-05-20T19:48:44.416Z,45.70
2023-05-20T19:51:15.580Z,38.67
2023-05-20T19:53:45.690Z,43.97
2023-05-20T19:56:19.474Z,36.00
2023-05-20T19:58:49.297Z,28.47
2023-05-20T20:01:20.488Z,25.63
2023-05-20T20:03:54.068Z,33.73
2023-05-20T20:06:23.884Z,26.80
2023-05-20T20:08:53.678Z,41.60
2023-05-20T20:11:23.908Z,43.53
2023-05-20T20:13:53.673Z,48.90
2023-05-20T20:16:23.638Z,39.83
2023-05-20T20:18:56.155Z,31.53
2023-05-20T20:21:26.045Z,32.50
2023-05-20T20:23:56.212Z,29.97
2023-05-20T20:26:26.112Z,30.97
2023-05-20T20:28:56.003Z,16.88
2023-05-20T20:31:26.669Z,10.23
2023-05-20T20:33:59.042Z,8.70
2023-05-20T20:36:31.965Z,8.20
2023-05-20T20:39:02.911Z,6.47
2023-05-20T20:41:32.779Z,11.43
2023-05-20T20:44:03.660Z,8.53
2023-05-20T20:46:33.553Z,5.20
2023-05-20T20:49:06.133Z,7.13
2023-05-20T20:51:36.225Z,7.03
2023-05-20T20:54:06.771Z,8.53
2023-05-20T20:56:37.414Z,6.53
2023-05-20T20:59:07.447Z,8.23
2023-05-20T21:01:38.062Z,4.87
2023-05-20T21:04:13.773Z,5.70
2023-05-20T21:06:46.103Z,7.63
2023-05-20T21:09:16.333Z,5.70
2023-05-20T21:11:49.537Z,6.60
2023-05-20T21:14:19.334Z,6.60
2023-05-20T21:16:49.181Z,7.43
2023-05-20T21:19:21.658Z,6.93
2023-05-20T21:21:51.452Z,8.30
2023-05-20T21:24:21.449Z,5.97
2023-05-20T21:26:51.257Z,4.60
2023-05-20T21:29:21.037Z,7.47
2023-05-20T21:31:51.360Z,5.40
2023-05-20T21:34:23.759Z,7.00
2023-05-20T21:36:53.570Z,7.43
2023-05-20T21:39:23.426Z,6.20
2023-05-20T21:41:53.289Z,5.43
2023-05-20T21:44:23.136Z,5.00
2023-05-20T21:46:53.047Z,6.70
2023-05-20T21:49:25.647Z,5.77
2023-05-20T21:51:55.468Z,6.80
2023-05-20T21:54:25.232Z,5.90
2023-05-20T21:56:55.026Z,18.83
2023-05-20T21:59:24.816Z,7.43
2023-05-20T22:01:56.203Z,8.90
2023-05-20T22:04:28.716Z,5.70
2023-05-20T22:06:58.933Z,8.77
2023-05-20T22:09:28.745Z,12.63
2023-05-20T22:11:59.965Z,6.67
2023-05-20T22:14:29.900Z,7.00
2023-05-20T22:16:59.718Z,13.23
2023-05-20T22:19:32.568Z,8.37
2023-05-20T22:22:02.578Z,8.13
2023-05-20T22:24:32.388Z,8.50
2023-05-20T22:27:02.166Z,11.00
2023-05-20T22:29:32.702Z,7.17
2023-05-20T22:32:02.652Z,6.17
2023-05-20T22:34:35.056Z,9.20
2023-05-20T22:37:07.218Z,7.70
2023-05-20T22:39:37.097Z,8.23
2023-05-20T22:42:07.341Z,6.67
2023-05-20T22:44:37.145Z,10.70
2023-05-20T22:47:06.980Z,10.70
2023-05-20T22:49:40.516Z,12.17
2023-05-20T22:52:10.678Z,7.27
2023-05-20T22:54:40.485Z,7.40
2023-05-20T22:57:10.324Z,8.30
2023-05-20T22:59:40.545Z,9.50
2023-05-20T23:02:10.743Z,14.17
2023-05-20T23:04:43.205Z,11.33
2023-05-20T23:07:15.052Z,7.83
2023-05-20T23:09:44.972Z,8.60
2023-05-20T23:12:14.984Z,10.53
2023-05-20T23:14:44.957Z,8.00
2023-05-20T23:17:14.762Z,14.23
2023-05-20T23:19:47.436Z,9.63
2023-05-20T23:22:17.520Z,14.67
2023-05-20T23:24:47.512Z,7.83
2023-05-20T23:27:17.386Z,8.80
2023-05-20T23:29:47.567Z,8.57
2023-05-20T23:32:17.491Z,7.67
2023-05-20T23:34:51.495Z,9.10
2023-05-20T23:37:21.469Z,12.83
2023-05-20T23:39:51.439Z,7.97
2023-05-20T23:42:21.257Z,8.90
2023-05-20T23:44:51.219Z,11.13
2023-05-20T23:47:21.072Z,9.03
2023-05-20T23:49:53.486Z,8.73
2023-05-20T23:52:23.315Z,9.27
2023-05-20T23:54:53.224Z,15.70
2023-05-20T23:57:23.330Z,8.70
2023-05-20T23:59:53.224Z,9.60
